Terminal Aerodrome Forecast
Issued by NWS Upton, NY

Home | Current Version | Previous Version | Text Only | Print | Product List | Glossary On
Versions: 1 2 3 4 5 6 7 8 9 10 11 12 13 14 15 16 17 18 19 20 21 22 23 24 25 26 27 28 29 30
046
FTUS41 KOKX 272132 AAB
TAFBDR
TAF AMD
KBDR 272132Z 2722/2818 VRB02KT 1SM BR OVC005
     FM280600 VRB03KT 1/2SM FG OVC004
     FM281500 06003KT 2SM BR OVC007=

USA.gov is the U.S. government's official web portal to all federal, state and local government web resources and services.